Time;durP1;ratioP1;P1;durP2;ratioP2;P2;SDS_P1;SDS_P2;PMS_P1;PMS_P2;Temp;Humidity;BMP_temperature;BMP_pressure;BME280_temperature;BME280_humidity;BME280_pressure;Samples;Min_cycle;Max_cycle;Signal;HPM_P1;HPM_P2
2022/11/19 00:00:44;;;;;;;11.98;6.28;;;2.30;67.20;;;;;;2373373;56;21054;-50
2022/11/19 00:03:13;;;;;;;13.23;6.85;;;2.30;67.30;;;;;;2372750;56;21063;-49
2022/11/19 00:05:40;;;;;;;12.73;6.95;;;2.30;67.60;;;;;;2373478;56;21074;-49
2022/11/19 00:08:08;;;;;;;14.02;7.07;;;2.30;67.60;;;;;;2374889;56;22062;-49
2022/11/19 00:10:35;;;;;;;16.25;7.50;;;2.30;67.50;;;;;;2374693;56;21064;-50
2022/11/19 00:13:02;;;;;;;10.75;6.40;;;2.30;67.60;;;;;;2373922;56;21103;-50
2022/11/19 00:15:30;;;;;;;17.08;7.30;;;2.30;67.80;;;;;;2374225;56;21055;-52
2022/11/19 00:17:57;;;;;;;13.70;6.95;;;2.30;67.90;;;;;;2372816;56;21047;-49
2022/11/19 00:20:24;;;;;;;11.27;6.20;;;2.30;68.10;;;;;;2373501;56;21091;-50
2022/11/19 00:22:52;;;;;;;12.95;7.20;;;2.20;68.00;;;;;;2372508;56;21193;-50
2022/11/19 00:25:19;;;;;;;11.43;7.47;;;2.20;67.80;;;;;;2373383;56;21566;-52
2022/11/19 00:27:47;;;;;;;11.02;6.25;;;2.30;67.70;;;;;;2370101;56;21514;-52
2022/11/19 00:30:15;;;;;;;12.50;7.35;;;2.30;67.50;;;;;;2370127;56;21606;-50
2022/11/19 00:35:18;;;;;;;13.45;8.88;;;2.20;67.30;;;;;;2319347;57;27977;-52
2022/11/19 00:37:45;;;;;;;13.00;7.62;;;1.70;66.50;;;;;;2373370;56;21086;-51
2022/11/19 00:40:13;;;;;;;13.73;7.97;;;2.10;67.30;;;;;;2373613;56;21047;-50
2022/11/19 00:43:45;;;;;;;15.07;8.18;;;2.20;66.90;;;;;;2373210;56;21038;-50
2022/11/19 00:48:49;;;;;;;16.98;9.52;;;2.20;66.70;;;;;;2334467;57;38196;-50
2022/11/19 00:51:18;;;;;;;14.80;8.95;;;1.80;67.60;;;;;;2347369;57;21577;-48
2022/11/19 00:53:45;;;;;;;17.90;9.10;;;2.00;67.40;;;;;;2347353;57;21132;-47
2022/11/19 00:56:15;;;;;;;14.77;7.47;;;2.10;66.70;;;;;;2323876;57;21119;-49
2022/11/19 00:58:42;;;;;;;13.30;7.03;;;2.20;66.30;;;;;;2319170;58;21524;-50
2022/11/19 01:01:11;;;;;;;14.20;7.25;;;2.20;66.30;;;;;;2318221;58;21064;-49
2022/11/19 01:03:39;;;;;;;17.05;7.65;;;2.10;66.50;;;;;;2319382;58;22036;-49
2022/11/19 01:06:08;;;;;;;12.85;7.22;;;2.10;66.70;;;;;;2318563;58;21666;-48
2022/11/19 01:08:36;;;;;;;14.23;7.43;;;2.20;66.70;;;;;;2319573;58;21863;-47
2022/11/19 01:11:08;;;;;;;11.38;6.55;;;2.10;66.30;;;;;;2319628;58;21571;-47
2022/11/19 01:13:35;;;;;;;11.77;6.50;;;2.10;65.60;;;;;;2319411;58;21134;-46
2022/11/19 01:16:05;;;;;;;10.70;6.85;;;2.10;65.80;;;;;;2319376;58;21100;-49
2022/11/19 01:18:33;;;;;;;11.60;6.75;;;2.10;65.90;;;;;;2319296;58;21789;-49
2022/11/19 01:21:01;;;;;;;11.80;6.57;;;2.00;65.80;;;;;;2318943;58;21071;-50
2022/11/19 01:23:28;;;;;;;12.07;6.78;;;2.00;65.70;;;;;;2320394;58;22190;-47
2022/11/19 01:25:55;;;;;;;13.90;7.22;;;2.00;65.60;;;;;;2403070;54;21389;-46
2022/11/19 01:28:22;;;;;;;11.93;6.20;;;2.00;65.50;;;;;;2265756;59;21154;-51
2022/11/19 01:30:50;;;;;;;12.25;6.32;;;2.00;65.50;;;;;;2266811;59;21141;-47
2022/11/19 01:33:17;;;;;;;10.70;6.22;;;1.90;65.70;;;;;;2265916;59;21142;-49
2022/11/19 01:35:53;;;;;;;10.80;6.18;;;1.90;65.70;;;;;;2278113;58;21068;-48
2022/11/19 01:38:20;;;;;;;11.45;5.82;;;1.90;65.80;;;;;;2291477;58;21883;-47
2022/11/19 01:40:47;;;;;;;9.65;5.47;;;1.90;65.90;;;;;;2292348;58;21132;-47
2022/11/19 01:43:14;;;;;;;9.90;6.25;;;1.90;65.80;;;;;;2292587;58;21658;-50
2022/11/19 01:45:44;;;;;;;10.18;7.62;;;1.90;65.60;;;;;;2293246;58;21679;-48
2022/11/19 01:48:16;;;;;;;9.18;7.40;;;1.80;65.40;;;;;;2291865;58;21151;-47
2022/11/19 01:50:49;;;;;;;15.27;7.97;;;1.80;66.20;;;;;;2292644;58;21540;-47
2022/11/19 01:53:18;;;;;;;9.48;6.85;;;1.80;65.60;;;;;;2291034;58;21685;-49
2022/11/19 01:55:46;;;;;;;8.98;7.05;;;1.80;65.80;;;;;;2292048;58;21132;-52
2022/11/19 01:58:17;;;;;;;8.45;6.07;;;1.70;65.80;;;;;;2291675;58;22015;-47
2022/11/19 02:00:45;;;;;;;11.68;6.85;;;1.70;66.00;;;;;;2292731;58;21040;-48
2022/11/19 02:03:13;;;;;;;10.98;7.32;;;1.70;66.10;;;;;;2292437;58;21143;-47
2022/11/19 02:05:40;;;;;;;9.82;6.97;;;1.70;66.10;;;;;;2292691;58;21044;-48
2022/11/19 02:08:32;;;;;;;12.95;7.80;;;1.70;66.20;;;;;;2292385;58;21134;-49
2022/11/19 02:11:27;;;;;;;11.82;7.15;;;1.70;66.30;;;;;;2290482;58;21060;-48
2022/11/19 02:14:02;;;;;;;11.45;6.97;;;1.70;66.10;;;;;;2290896;58;21532;-48
2022/11/19 02:16:38;;;;;;;14.30;7.03;;;1.60;66.00;;;;;;2291444;58;21642;-49
2022/11/19 02:19:20;;;;;;;9.35;6.45;;;1.60;66.10;;;;;;2290782;58;21686;-50
2022/11/19 02:22:03;;;;;;;10.13;6.35;;;1.60;66.20;;;;;;2291792;58;21060;-48
2022/11/19 02:24:49;;;;;;;9.38;6.45;;;1.60;66.30;;;;;;2292185;58;21426;-49
2022/11/19 02:30:36;;;;;;;12.95;7.87;;;1.50;66.00;;;;;;2327423;57;22162;-46
2022/11/19 02:33:07;;;;;;;14.68;7.75;;;1.50;65.90;;;;;;2345740;57;21049;-48
2022/11/19 02:35:46;;;;;;;10.23;6.37;;;1.50;66.00;;;;;;2357202;56;21046;-48
2022/11/19 02:38:26;;;;;;;12.57;6.70;;;1.50;66.10;;;;;;2374609;56;21111;-48
2022/11/19 02:40:58;;;;;;;11.32;6.95;;;1.40;66.20;;;;;;2375549;56;21011;-52
2022/11/19 02:43:32;;;;;;;12.32;7.40;;;1.40;66.40;;;;;;2374457;56;21050;-51
2022/11/19 02:46:08;;;;;;;14.43;7.78;;;1.40;66.90;;;;;;2374535;56;21498;-50
2022/11/19 02:48:39;;;;;;;14.48;6.82;;;1.40;67.10;;;;;;2372969;56;21145;-50
2022/11/19 02:51:08;;;;;;;13.90;7.45;;;1.40;67.10;;;;;;2374037;56;21507;-52
2022/11/19 02:53:35;;;;;;;13.05;7.95;;;1.40;66.90;;;;;;2373943;56;21640;-49
2022/11/19 02:56:16;;;;;;;15.07;7.78;;;1.40;66.70;;;;;;2374191;56;21126;-48
2022/11/19 03:04:31;;;;;;;14.45;8.35;;;1.40;66.50;;;;;;2373613;56;21596;-51
2022/11/19 03:07:03;;;;;;;17.35;8.70;;;1.40;66.50;;;;;;2374195;56;22057;-50
2022/11/19 03:09:33;;;;;;;13.18;7.65;;;1.30;66.40;;;;;;2373263;56;22057;-49
2022/11/19 03:12:09;;;;;;;12.02;7.82;;;1.30;66.60;;;;;;2373758;56;21552;-50
2022/11/19 03:17:45;;;;;;;19.67;9.93;;;1.30;67.20;;;;;;2628635;52;20943;-51
2022/11/19 03:20:22;;;;;;;19.60;9.05;;;1.30;67.20;;;;;;2374560;56;21022;-50
2022/11/19 03:22:53;;;;;;;18.20;8.85;;;1.30;68.10;;;;;;2375226;56;21026;-50
2022/11/19 03:25:25;;;;;;;14.57;9.35;;;1.30;67.50;;;;;;2374949;56;21578;-48
2022/11/19 03:27:57;;;;;;;22.10;10.52;;;1.30;67.50;;;;;;2374522;56;22124;-49
2022/11/19 03:30:24;;;;;;;17.55;9.10;;;1.30;67.40;;;;;;2373423;56;21606;-54
2022/11/19 03:32:57;;;;;;;18.37;8.82;;;1.30;67.10;;;;;;2373620;56;21047;-48
2022/11/19 03:38:06;;;;;;;28.45;10.18;;;1.30;66.90;;;;;;2355588;57;22078;-52
2022/11/19 03:40:34;;;;;;;19.15;9.82;;;1.30;66.80;;;;;;2347239;57;21117;-51
2022/11/19 03:43:04;;;;;;;17.98;9.85;;;1.30;66.90;;;;;;2346520;57;22133;-54
2022/11/19 03:45:35;;;;;;;16.92;9.48;;;1.30;67.10;;;;;;2345806;57;21058;-51
2022/11/19 03:48:05;;;;;;;18.98;9.18;;;1.30;67.40;;;;;;2347731;53;21102;-60
2022/11/19 03:50:42;;;;;;;14.95;8.65;;;1.30;67.50;;;;;;2375372;56;21102;-60
2022/11/19 03:53:09;;;;;;;18.77;9.60;;;1.30;67.50;;;;;;2374757;56;21705;-59
2022/11/19 03:55:42;;;;;;;20.05;9.80;;;1.30;67.30;;;;;;2377091;56;21566;-60
2022/11/19 03:58:11;;;;;;;16.80;9.07;;;1.30;67.10;;;;;;2377199;56;21578;-58
2022/11/19 04:00:38;;;;;;;18.45;9.88;;;1.20;67.00;;;;;;2375615;56;21034;-60
2022/11/19 04:03:05;;;;;;;18.10;8.88;;;1.30;67.20;;;;;;2375701;56;21062;-60
2022/11/19 04:05:32;;;;;;;18.85;8.60;;;1.30;67.20;;;;;;2374526;56;21030;-58
2022/11/19 04:07:59;;;;;;;14.63;8.43;;;1.30;67.00;;;;;;2374053;56;21122;-60
2022/11/19 04:10:27;;;;;;;16.92;9.57;;;1.30;67.00;;;;;;2373402;56;21502;-59
2022/11/19 04:12:54;;;;;;;14.50;8.82;;;1.30;67.00;;;;;;2374377;56;21102;-60
2022/11/19 04:15:21;;;;;;;14.30;7.90;;;1.30;66.80;;;;;;2375129;56;21038;-61
2022/11/19 04:17:48;;;;;;;12.45;7.85;;;1.30;66.80;;;;;;2374873;56;21093;-60
2022/11/19 04:20:16;;;;;;;16.65;9.10;;;1.30;66.80;;;;;;2374707;56;21058;-58
2022/11/19 04:22:43;;;;;;;13.02;8.10;;;1.30;66.90;;;;;;2373948;56;21162;-58
2022/11/19 04:25:10;;;;;;;15.52;9.20;;;1.20;66.70;;;;;;2374753;56;21119;-60
2022/11/19 04:27:37;;;;;;;13.65;7.93;;;1.30;66.90;;;;;;2373643;56;21720;-55
2022/11/19 04:30:07;;;;;;;13.98;8.13;;;1.20;67.00;;;;;;2374467;56;22088;-56
2022/11/19 04:32:34;;;;;;;15.57;8.52;;;1.20;67.10;;;;;;2375630;56;21091;-59
2022/11/19 04:35:01;;;;;;;17.23;8.50;;;1.20;67.20;;;;;;2375820;56;21098;-57
2022/11/19 04:37:28;;;;;;;15.75;9.57;;;1.20;67.40;;;;;;2375352;56;21081;-60
2022/11/19 04:39:55;;;;;;;13.00;7.93;;;1.20;67.30;;;;;;2374974;56;21110;-59
2022/11/19 04:42:23;;;;;;;16.30;9.07;;;1.20;67.30;;;;;;2373635;56;21518;-59
2022/11/19 04:44:50;;;;;;;17.80;9.32;;;1.20;67.20;;;;;;2374666;56;21688;-58
2022/11/19 04:47:17;;;;;;;14.13;8.13;;;1.20;67.20;;;;;;2374168;56;21011;-59
2022/11/19 04:49:44;;;;;;;14.02;7.78;;;1.20;67.10;;;;;;2373090;56;21050;-59
2022/11/19 04:52:11;;;;;;;13.05;7.90;;;1.20;67.10;;;;;;2374353;56;21086;-57
2022/11/19 04:54:39;;;;;;;13.20;7.87;;;1.20;67.00;;;;;;2373562;56;21043;-57
2022/11/19 04:57:06;;;;;;;13.80;7.95;;;1.20;67.10;;;;;;2373257;56;21197;-57
2022/11/19 04:59:33;;;;;;;13.85;8.50;;;1.20;67.20;;;;;;2373247;56;21035;-58
2022/11/19 05:02:00;;;;;;;15.50;7.82;;;1.20;67.40;;;;;;2372345;56;22188;-59
2022/11/19 05:04:27;;;;;;;14.98;8.90;;;1.20;67.50;;;;;;2371522;56;21031;-58
2022/11/19 05:06:55;;;;;;;13.73;8.15;;;1.20;67.40;;;;;;2373344;56;21043;-59
2022/11/19 05:09:22;;;;;;;15.90;8.23;;;1.20;67.40;;;;;;2372854;56;21047;-58
2022/11/19 05:11:49;;;;;;;12.32;8.05;;;1.20;67.30;;;;;;2373510;56;21075;-57
2022/11/19 05:14:16;;;;;;;15.93;8.73;;;1.20;67.40;;;;;;2373723;56;21550;-55
2022/11/19 05:16:43;;;;;;;12.95;7.82;;;1.20;67.70;;;;;;2373080;56;21126;-59
2022/11/19 05:19:10;;;;;;;16.20;9.35;;;1.20;68.30;;;;;;2373435;56;21082;-59
2022/11/19 05:21:37;;;;;;;13.15;7.45;;;1.20;69.20;;;;;;2371225;56;21031;-59
2022/11/19 05:24:06;;;;;;;9.85;7.20;;;1.20;68.40;;;;;;2373543;56;21051;-58
2022/11/19 05:26:33;;;;;;;14.43;7.85;;;1.20;68.40;;;;;;2373663;56;21609;-58
2022/11/19 05:29:00;;;;;;;11.60;7.32;;;1.30;68.40;;;;;;2374230;56;21031;-60
2022/11/19 05:31:27;;;;;;;12.30;7.18;;;1.20;68.70;;;;;;2373249;56;21030;-58
2022/11/19 05:33:54;;;;;;;11.35;6.93;;;1.20;69.00;;;;;;2372624;56;22107;-60
2022/11/19 05:36:21;;;;;;;13.05;7.43;;;1.20;69.20;;;;;;2372422;56;21048;-60
2022/11/19 05:38:49;;;;;;;14.75;7.22;;;1.30;69.80;;;;;;2373395;56;21047;-59
2022/11/19 05:41:16;;;;;;;14.60;7.60;;;1.30;69.90;;;;;;2372947;56;21047;-58
2022/11/19 05:43:43;;;;;;;12.80;7.50;;;1.30;69.50;;;;;;2371489;56;21098;-58
2022/11/19 05:46:10;;;;;;;13.80;7.93;;;1.30;69.20;;;;;;2373672;56;21035;-60
2022/11/19 05:48:37;;;;;;;15.43;7.82;;;1.40;69.00;;;;;;2372973;56;21038;-60
2022/11/19 05:51:05;;;;;;;11.48;7.43;;;1.40;68.90;;;;;;2372081;56;21042;-59
2022/11/19 05:53:32;;;;;;;12.02;8.07;;;1.40;68.70;;;;;;2372685;56;21514;-58
2022/11/19 05:55:59;;;;;;;13.65;8.00;;;1.50;68.80;;;;;;2372450;56;21484;-57
2022/11/19 05:58:26;;;;;;;13.25;8.25;;;1.50;68.90;;;;;;2373051;56;21563;-59
2022/11/19 06:00:55;;;;;;;14.55;8.82;;;1.50;68.90;;;;;;2372571;56;21110;-60
2022/11/19 06:05:58;;;;;;;18.35;8.23;;;1.50;69.10;;;;;;2354972;57;22597;-57
2022/11/19 06:11:03;;;;;;;13.20;8.88;;;1.50;69.20;;;;;;2307706;57;28414;-60
2022/11/19 06:16:07;;;;;;;9.35;6.60;;;1.50;71.30;;;;;;2355547;57;22592;-59
2022/11/19 06:18:34;;;;;;;12.15;7.20;;;1.60;70.50;;;;;;2375024;56;21043;-58
2022/11/19 06:21:01;;;;;;;15.82;8.18;;;1.70;70.10;;;;;;2374315;56;21171;-59
2022/11/19 06:23:28;;;;;;;14.60;8.23;;;1.70;69.80;;;;;;2374968;56;21039;-57
2022/11/19 06:25:56;;;;;;;11.10;7.72;;;1.70;69.80;;;;;;2375274;56;21035;-55
2022/11/19 06:28:23;;;;;;;14.82;8.68;;;1.70;69.60;;;;;;2376607;56;21574;-58
2022/11/19 06:30:50;;;;;;;10.25;7.80;;;1.80;69.80;;;;;;2374154;56;21035;-57
2022/11/19 06:33:17;;;;;;;12.55;7.70;;;1.80;69.90;;;;;;2375492;56;21058;-54
2022/11/19 06:35:44;;;;;;;12.43;7.78;;;1.80;69.80;;;;;;2375672;56;21787;-58
2022/11/19 06:38:11;;;;;;;12.95;7.53;;;1.90;69.40;;;;;;2374489;56;22142;-58
2022/11/19 06:40:39;;;;;;;9.75;7.07;;;1.90;69.00;;;;;;2374994;56;21337;-58
2022/11/19 06:43:06;;;;;;;11.12;7.30;;;1.90;68.70;;;;;;2376106;56;21027;-59
2022/11/19 06:45:33;;;;;;;13.55;8.27;;;1.90;68.40;;;;;;2375546;56;21142;-58
2022/11/19 06:48:00;;;;;;;13.10;7.82;;;1.90;68.60;;;;;;2373277;56;21878;-55
2022/11/19 06:50:27;;;;;;;13.88;8.35;;;1.90;68.80;;;;;;2374537;56;21046;-61
2022/11/19 06:52:54;;;;;;;14.18;8.52;;;1.90;68.90;;;;;;2374330;56;21050;-59
2022/11/19 06:55:21;;;;;;;13.23;8.57;;;1.90;68.90;;;;;;2373956;56;21035;-60
2022/11/19 06:57:49;;;;;;;12.35;8.00;;;1.90;69.70;;;;;;2373442;56;21614;-59
2022/11/19 07:00:18;;;;;;;13.30;8.50;;;1.90;68.80;;;;;;2375046;56;21590;-58
2022/11/19 07:02:46;;;;;;;12.68;8.02;;;1.90;68.60;;;;;;2375652;56;21082;-59
2022/11/19 07:05:13;;;;;;;14.13;8.10;;;2.00;68.40;;;;;;2375644;56;21007;-56
2022/11/19 07:07:40;;;;;;;11.73;7.72;;;2.00;68.20;;;;;;2376884;56;21574;-57
2022/11/19 07:10:09;;;;;;;11.35;8.10;;;2.00;68.20;;;;;;2374736;56;21050;-56
2022/11/19 07:12:36;;;;;;;9.93;7.40;;;2.00;68.40;;;;;;2374517;56;21094;-60
2022/11/19 07:15:04;;;;;;;13.82;8.15;;;1.90;68.60;;;;;;2375246;56;21047;-56
2022/11/19 07:17:32;;;;;;;11.90;7.22;;;1.90;68.60;;;;;;2379292;52;21544;-60
2022/11/19 07:19:59;;;;;;;11.93;8.27;;;1.90;68.70;;;;;;2374656;56;21525;-59
2022/11/19 07:22:26;;;;;;;15.05;9.57;;;1.90;68.70;;;;;;2372748;56;21089;-55
2022/11/19 07:24:53;;;;;;;11.77;7.22;;;2.00;68.90;;;;;;2375413;56;21055;-55
2022/11/19 07:27:20;;;;;;;12.80;8.38;;;2.00;69.00;;;;;;2385664;52;21039;-57
2022/11/19 07:29:48;;;;;;;15.05;8.80;;;2.00;68.90;;;;;;2373258;56;21055;-59
2022/11/19 07:32:15;;;;;;;14.23;8.65;;;2.00;69.00;;;;;;2386146;52;21046;-58
2022/11/19 07:34:42;;;;;;;12.93;8.20;;;2.00;69.10;;;;;;2373707;56;21055;-56
2022/11/19 07:37:09;;;;;;;14.73;8.77;;;2.00;69.30;;;;;;2393121;52;21055;-60
2022/11/19 07:39:36;;;;;;;17.90;9.32;;;2.00;69.40;;;;;;2372875;56;21602;-59
2022/11/19 07:44:49;;;;;;;12.93;8.43;;;2.10;69.20;;;;;;2629054;52;20974;-58
2022/11/19 07:47:16;;;;;;;13.23;8.27;;;2.10;69.30;;;;;;2373746;56;21118;-60
2022/11/19 07:49:43;;;;;;;12.70;7.68;;;2.10;69.60;;;;;;2372475;56;21039;-60
2022/11/19 07:52:10;;;;;;;13.65;8.50;;;2.10;70.40;;;;;;2384424;52;21038;-59
2022/11/19 07:54:37;;;;;;;12.52;8.25;;;2.10;70.10;;;;;;2373751;52;21038;-58
2022/11/19 07:57:05;;;;;;;14.95;8.75;;;2.20;70.30;;;;;;2370602;56;21629;-59
2022/11/19 07:59:32;;;;;;;13.05;8.05;;;2.20;70.40;;;;;;2372258;56;21535;-60
2022/11/19 08:01:59;;;;;;;13.55;9.00;;;2.20;70.50;;;;;;2378179;52;21051;-56
2022/11/19 08:07:03;;;;;;;13.43;7.87;;;2.20;70.50;;;;;;2353686;57;22090;-58
2022/11/19 08:09:30;;;;;;;13.80;8.40;;;2.30;70.40;;;;;;2373753;53;21118;-58
2022/11/19 08:11:57;;;;;;;15.07;8.95;;;2.30;70.40;;;;;;2371160;56;21597;-60
2022/11/19 08:14:24;;;;;;;10.38;7.57;;;2.30;70.30;;;;;;2409535;52;21027;-56
2022/11/19 08:19:37;;;;;;;11.20;7.55;;;2.40;70.70;;;;;;2399054;52;21087;-59
2022/11/19 08:22:04;;;;;;;13.00;7.72;;;2.40;70.80;;;;;;2373122;56;21039;-59
2022/11/19 08:24:31;;;;;;;11.25;7.35;;;2.40;70.90;;;;;;2372716;56;21063;-59
2022/11/19 08:26:58;;;;;;;14.13;8.23;;;2.50;71.20;;;;;;2372225;56;21672;-58
2022/11/19 08:32:02;;;;;;;14.00;8.52;;;2.60;71.40;;;;;;2326415;57;22452;-60
2022/11/19 08:34:31;;;;;;;15.90;9.27;;;2.60;71.60;;;;;;2344928;57;21045;-59
2022/11/19 08:36:58;;;;;;;22.60;14.77;;;2.70;71.60;;;;;;2345951;57;21037;-61
2022/11/19 08:39:25;;;;;;;21.02;14.25;;;2.70;71.60;;;;;;2344591;57;21120;-60
2022/11/19 08:44:38;;;;;;;16.15;10.75;;;2.70;71.60;;;;;;2344013;53;21573;-61
2022/11/19 08:47:05;;;;;;;14.57;10.18;;;2.80;71.70;;;;;;2344123;57;21141;-61
2022/11/19 08:52:09;;;;;;;12.63;7.95;;;2.80;72.00;;;;;;2326352;57;22632;-61
2022/11/19 08:54:36;;;;;;;12.20;8.60;;;2.80;72.40;;;;;;2345336;57;21621;-61
2022/11/19 08:57:03;;;;;;;15.10;9.35;;;2.90;71.90;;;;;;2345361;57;21054;-62
2022/11/19 08:59:30;;;;;;;17.20;10.63;;;2.90;71.90;;;;;;2343259;57;21606;-60
2022/11/19 09:01:57;;;;;;;15.55;10.77;;;3.00;71.90;;;;;;2344329;57;21101;-60
2022/11/19 09:04:24;;;;;;;15.63;9.85;;;3.00;71.80;;;;;;2345337;57;21086;-61
2022/11/19 09:06:51;;;;;;;14.55;8.80;;;3.00;72.00;;;;;;2345744;57;21077;-62
2022/11/19 09:09:19;;;;;;;15.90;8.68;;;3.10;72.20;;;;;;2345213;57;22138;-61
2022/11/19 09:11:46;;;;;;;14.00;9.13;;;3.10;72.20;;;;;;2345053;57;21116;-58
2022/11/19 09:14:13;;;;;;;25.83;8.70;;;3.10;72.30;;;;;;2358634;53;21121;-61
2022/11/19 09:16:41;;;;;;;13.00;8.18;;;3.10;72.20;;;;;;2343983;57;21549;-60
2022/11/19 09:19:08;;;;;;;13.20;7.87;;;3.10;72.20;;;;;;2344055;57;21065;-62
2022/11/19 09:21:35;;;;;;;11.82;8.18;;;3.10;72.30;;;;;;2344291;57;21414;-61
2022/11/19 09:24:02;;;;;;;14.80;8.52;;;3.20;72.50;;;;;;2345457;57;21069;-61
2022/11/19 09:26:30;;;;;;;17.55;8.70;;;3.20;72.40;;;;;;2345369;57;21521;-61
2022/11/19 09:28:57;;;;;;;12.02;8.43;;;3.20;72.60;;;;;;2344402;57;21080;-62
2022/11/19 09:31:24;;;;;;;10.90;7.78;;;3.20;72.70;;;;;;2344689;57;21132;-62
2022/11/19 09:33:53;;;;;;;12.75;7.85;;;3.30;72.60;;;;;;2344469;57;21117;-60
2022/11/19 09:36:20;;;;;;;13.52;7.55;;;3.30;72.50;;;;;;2346849;57;21785;-61
2022/11/19 09:38:48;;;;;;;10.18;7.85;;;3.30;72.30;;;;;;2346756;57;21049;-62
2022/11/19 09:41:42;;;;;;;10.73;6.47;;;3.30;72.50;;;;;;2346682;57;21065;-62
2022/11/19 09:44:22;;;;;;;9.15;6.32;;;3.30;72.70;;;;;;2345929;57;21053;-62
2022/11/19 09:46:59;;;;;;;9.02;6.82;;;3.40;73.00;;;;;;2346192;57;21057;-62
2022/11/19 09:49:33;;;;;;;9.68;6.30;;;3.40;73.00;;;;;;2346022;57;21518;-61
2022/11/19 09:52:05;;;;;;;10.32;7.03;;;3.40;72.90;;;;;;2334193;54;21130;-61
2022/11/19 09:54:33;;;;;;;9.48;6.45;;;3.40;73.10;;;;;;2328068;57;21070;-62
2022/11/19 09:57:04;;;;;;;9.95;6.80;;;3.50;73.40;;;;;;2328080;57;21038;-62
2022/11/19 09:59:35;;;;;;;12.73;6.68;;;3.50;73.20;;;;;;2327790;57;21379;-61
2022/11/19 10:02:14;;;;;;;9.20;6.32;;;3.60;73.60;;;;;;2326952;57;21681;-61
2022/11/19 10:04:41;;;;;;;9.13;6.62;;;3.60;73.80;;;;;;2326125;57;21554;-61
2022/11/19 10:07:16;;;;;;;10.00;6.12;;;3.70;73.90;;;;;;2348843;54;21995;-63
2022/11/19 10:09:59;;;;;;;10.98;6.60;;;3.80;74.00;;;;;;2333177;54;21566;-61
2022/11/19 10:12:36;;;;;;;;;;;3.80;73.90;;;;;;2333172;54;21561;-61
2022/11/19 10:15:15;;;;;;;13.30;6.68;;;3.90;73.70;;;;;;2326231;57;20782;-62
2022/11/19 10:17:54;;;;;;;11.50;7.80;;;3.90;73.20;;;;;;2327738;57;21058;-63
2022/11/19 10:20:39;;;;;;;9.73;6.30;;;3.90;73.50;;;;;;2326824;57;21597;-55
2022/11/19 10:23:14;;;;;;;9.80;6.93;;;4.00;73.50;;;;;;2326057;57;21624;-62
2022/11/19 10:25:44;;;;;;;8.20;5.22;;;4.00;73.70;;;;;;2326137;57;22133;-61
2022/11/19 10:28:13;;;;;;;8.95;5.68;;;4.00;73.80;;;;;;2326384;57;21557;-58
2022/11/19 10:30:47;;;;;;;9.90;6.05;;;4.10;73.80;;;;;;2327090;57;21054;-58
2022/11/19 10:33:22;;;;;;;8.90;5.85;;;4.10;73.90;;;;;;2326552;57;21054;-57
2022/11/19 10:35:52;;;;;;;8.95;6.05;;;4.20;74.00;;;;;;2326592;57;21121;-61
2022/11/19 10:38:23;;;;;;;11.63;6.87;;;4.20;74.10;;;;;;2326592;57;22196;-59
2022/11/19 10:40:53;;;;;;;10.25;6.05;;;4.20;74.20;;;;;;2326543;57;21561;-61
2022/11/19 10:43:27;;;;;;;10.75;7.03;;;4.30;74.30;;;;;;2326280;57;21034;-59
2022/11/19 10:45:57;;;;;;;12.05;6.22;;;4.30;74.40;;;;;;2327954;57;21010;-58
2022/11/19 10:48:29;;;;;;;14.23;6.10;;;4.30;74.50;;;;;;2328304;57;21041;-59
2022/11/19 10:50:59;;;;;;;7.05;5.10;;;4.40;74.50;;;;;;2328390;57;21030;-58
2022/11/19 10:53:32;;;;;;;9.45;5.65;;;4.40;74.10;;;;;;2327258;57;21141;-61
2022/11/19 10:56:03;;;;;;;9.98;5.22;;;4.50;74.30;;;;;;2337154;54;21117;-61
2022/11/19 10:58:36;;;;;;;8.43;5.62;;;4.50;74.30;;;;;;2371561;54;21530;-60
2022/11/19 11:01:13;;;;;;;9.68;6.50;;;4.60;74.10;;;;;;2326230;57;21070;-61
2022/11/19 11:03:47;;;;;;;14.07;8.65;;;4.60;74.00;;;;;;2326988;57;21054;-58
2022/11/19 11:06:14;;;;;;;15.90;9.57;;;4.60;74.00;;;;;;2327518;57;21597;-59
2022/11/19 11:08:49;;;;;;;11.40;7.75;;;4.70;74.20;;;;;;2326789;57;21125;-59
2022/11/19 11:14:50;;;;;;;10.60;6.70;;;4.70;73.80;;;;;;2326840;57;21054;-56
2022/11/19 11:17:20;;;;;;;8.68;5.22;;;4.80;73.90;;;;;;2326623;57;21118;-60
2022/11/19 11:20:00;;;;;;;8.13;6.12;;;4.90;72.70;;;;;;2325741;57;21045;-59
2022/11/19 11:22:28;;;;;;;7.70;5.03;;;4.90;73.30;;;;;;2326081;57;21109;-61
2022/11/19 11:24:55;;;;;;;8.52;5.37;;;4.90;73.40;;;;;;2326114;57;21557;-58
2022/11/19 11:27:26;;;;;;;8.95;5.03;;;5.00;73.50;;;;;;2325920;57;21050;-58
2022/11/19 11:30:13;;;;;;;9.27;6.12;;;5.00;73.80;;;;;;2343564;54;21652;-58
2022/11/19 11:32:41;;;;;;;9.20;6.30;;;5.00;73.70;;;;;;2325231;57;21113;-62
2022/11/19 11:35:29;;;;;;;9.95;6.25;;;5.10;73.60;;;;;;2325699;57;21583;-55
2022/11/19 11:37:58;;;;;;;8.43;5.72;;;5.20;73.70;;;;;;2324959;57;21640;-58
2022/11/19 11:40:25;;;;;;;11.02;6.25;;;5.20;73.50;;;;;;2325310;57;21053;-60
2022/11/19 11:42:53;;;;;;;10.02;5.60;;;5.20;73.60;;;;;;2326337;57;21687;-57
2022/11/19 11:45:30;;;;;;;7.60;4.47;;;5.30;73.70;;;;;;2325922;57;21549;-58
2022/11/19 11:48:02;;;;;;;9.77;5.37;;;5.30;74.00;;;;;;2325230;57;21070;-54
2022/11/19 11:50:30;;;;;;;7.25;4.65;;;5.30;74.10;;;;;;2335362;54;22179;-57
2022/11/19 11:52:57;;;;;;;7.28;4.82;;;5.40;74.30;;;;;;2325303;57;21636;-57
2022/11/19 11:55:31;;;;;;;8.63;5.15;;;5.40;74.00;;;;;;2325460;57;21062;-57
2022/11/19 11:58:00;;;;;;;7.65;5.12;;;5.50;74.00;;;;;;2327648;57;21098;-59
2022/11/19 12:00:34;;;;;;;8.32;5.03;;;5.50;74.00;;;;;;2328018;57;21545;-58
2022/11/19 12:03:04;;;;;;;8.15;4.40;;;5.50;74.00;;;;;;2327221;57;21538;-60
2022/11/19 12:05:49;;;;;;;5.93;4.10;;;5.50;73.70;;;;;;2325614;57;22160;-55
2022/11/19 12:08:31;;;;;;;8.68;4.40;;;5.50;73.90;;;;;;2325148;57;21141;-59
2022/11/19 12:11:08;;;;;;;6.80;4.53;;;5.60;73.90;;;;;;2325505;57;21576;-58
2022/11/19 12:13:58;;;;;;;7.25;4.68;;;5.60;73.80;;;;;;2325717;57;21513;-54
2022/11/19 12:16:39;;;;;;;8.02;4.87;;;5.70;73.80;;;;;;2325787;57;21681;-60
2022/11/19 12:19:21;;;;;;;10.35;4.65;;;5.70;73.70;;;;;;2325966;57;21144;-55
2022/11/19 12:21:58;;;;;;;8.02;4.57;;;5.70;73.90;;;;;;2325107;57;21597;-59
2022/11/19 12:24:44;;;;;;;7.35;4.43;;;5.70;73.80;;;;;;2325897;57;21112;-57
2022/11/19 12:27:21;;;;;;;7.47;4.78;;;5.80;73.80;;;;;;2325397;57;21067;-56
2022/11/19 12:29:59;;;;;;;8.25;4.47;;;5.80;73.70;;;;;;2456891;53;21122;-48
2022/11/19 12:32:47;;;;;;;5.35;3.92;;;5.80;73.70;;;;;;2361063;57;21039;-51
2022/11/19 12:35:28;;;;;;;6.68;4.85;;;5.90;73.60;;;;;;2360863;57;21023;-51
2022/11/19 12:38:13;;;;;;;6.43;4.53;;;5.90;73.30;;;;;;2360884;57;21808;-51
2022/11/19 12:40:52;;;;;;;7.72;3.92;;;5.90;73.10;;;;;;2361569;57;21867;-48
2022/11/19 12:43:36;;;;;;;6.95;4.20;;;5.90;73.70;;;;;;2360238;57;21062;-48
2022/11/19 12:46:11;;;;;;;6.95;3.80;;;5.80;73.00;;;;;;2359867;57;21119;-49
2022/11/19 12:48:56;;;;;;;7.15;3.45;;;5.90;73.10;;;;;;2360155;56;21099;-52
2022/11/19 12:51:37;;;;;;;4.05;3.30;;;5.90;73.10;;;;;;2359427;57;22142;-52
2022/11/19 12:54:17;;;;;;;6.37;4.40;;;5.90;73.10;;;;;;2359334;57;21558;-47
2022/11/19 12:56:53;;;;;;;5.87;4.00;;;6.00;73.40;;;;;;2359930;57;21052;-47
2022/11/19 12:59:36;;;;;;;4.20;3.78;;;6.00;73.50;;;;;;2360046;56;21043;-51
2022/11/19 13:02:14;;;;;;;3.97;3.03;;;6.10;73.10;;;;;;2359765;57;21502;-52
2022/11/19 13:04:45;;;;;;;4.40;3.28;;;6.20;73.10;;;;;;2359773;57;21636;-50
2022/11/19 13:07:18;;;;;;;6.57;3.30;;;6.20;73.00;;;;;;2359858;57;21051;-49
2022/11/19 13:09:50;;;;;;;5.95;3.70;;;6.30;72.40;;;;;;2359008;57;21094;-51
2022/11/19 13:12:20;;;;;;;6.72;3.50;;;6.30;72.10;;;;;;2358775;57;21082;-50
2022/11/19 13:14:52;;;;;;;9.20;5.03;;;6.40;72.20;;;;;;2359422;57;21365;-49
2022/11/19 13:17:25;;;;;;;9.68;5.53;;;6.40;72.00;;;;;;2361587;57;21567;-48
2022/11/19 13:19:55;;;;;;;7.22;5.18;;;6.40;71.80;;;;;;2361123;57;21058;-49
2022/11/19 13:22:28;;;;;;;9.45;5.30;;;6.40;71.70;;;;;;2359931;57;21023;-48
2022/11/19 13:25:00;;;;;;;4.93;3.97;;;6.40;71.50;;;;;;2359607;57;21804;-49
2022/11/19 13:27:30;;;;;;;8.70;4.15;;;6.40;71.50;;;;;;2360240;57;21038;-50
2022/11/19 13:30:01;;;;;;;6.57;3.90;;;6.50;71.30;;;;;;2360084;56;21047;-49
2022/11/19 13:32:34;;;;;;;5.87;3.28;;;6.50;71.50;;;;;;2360886;57;21181;-52
2022/11/19 13:35:10;;;;;;;4.75;3.47;;;6.50;71.30;;;;;;2360987;57;21146;-49
2022/11/19 13:37:50;;;;;;;3.97;3.00;;;6.50;71.20;;;;;;2360331;57;21700;-51
2022/11/19 13:40:24;;;;;;;5.72;3.30;;;6.60;71.10;;;;;;2359417;57;21673;-51
2022/11/19 13:45:42;;;;;;;5.25;3.33;;;6.50;71.50;;;;;;2359688;57;21565;-55
2022/11/19 13:48:22;;;;;;;6.28;3.22;;;6.60;70.80;;;;;;2360618;56;21609;-54
2022/11/19 13:50:51;;;;;;;9.63;4.05;;;6.50;70.90;;;;;;2360494;57;21726;-53
2022/11/19 13:53:25;;;;;;;7.25;3.97;;;6.50;70.80;;;;;;2361865;57;21500;-52
2022/11/19 13:55:57;;;;;;;6.45;4.20;;;6.60;71.00;;;;;;2361448;57;21217;-54
2022/11/19 13:58:29;;;;;;;6.97;3.70;;;6.60;70.90;;;;;;2359907;57;21058;-52